Terminal Aerodrome Forecast
Issued by NWS Louisville, KY

Home | Current Version | Previous Version | Text Only | Print | Product List | Glossary On
Versions: 1 2 3 4 5 6 7 8 9 10 11 12 13 14 15 16
918
FTUS43 KLMK 130520
TAFLEX
TAF
KLEX 130520Z 1306/1406 30017G20KT P6SM -SN BKN035 OVC050
     FM130900 31008KT P6SM BKN050
     FM131300 31007KT P6SM SCT035 SCT250
     FM131600 32008KT P6SM SCT250=

USA.gov is the U.S. government's official web portal to all federal, state and local government web resources and services.